createdAt,value
2022-09-22T00:01:29.046Z,80.33
2022-09-22T00:03:58.813Z,80.71
2022-09-22T00:06:35.243Z,80.30
2022-09-22T00:09:03.503Z,80.24
2022-09-22T00:11:33.714Z,80.16
2022-09-22T00:14:07.999Z,80.01
2022-09-22T00:16:41.172Z,80.48
2022-09-22T00:19:15.049Z,79.98
2022-09-22T00:21:42.398Z,79.74
2022-09-22T00:24:09.484Z,79.90
2022-09-22T00:26:38.347Z,79.67
2022-09-22T00:29:09.599Z,79.83
2022-09-22T00:31:42.143Z,79.95
2022-09-22T00:34:15.298Z,79.96
2022-09-22T00:36:42.840Z,80.00
2022-09-22T00:39:10.016Z,80.04
2022-09-22T00:41:41.003Z,80.08
2022-09-22T00:44:26.755Z,80.55
2022-09-22T00:46:59.613Z,80.53
2022-09-22T00:49:38.506Z,80.36
2022-09-22T00:52:06.080Z,80.08
2022-09-22T00:54:34.435Z,80.95
2022-09-22T00:57:24.327Z,81.08
2022-09-22T00:59:52.784Z,81.31
2022-09-22T01:02:21.383Z,81.32
2022-09-22T01:04:52.221Z,81.31
2022-09-22T01:07:23.152Z,81.64
2022-09-22T01:09:50.556Z,81.70
2022-09-22T01:12:17.699Z,81.58
2022-09-22T01:15:12.568Z,81.75
2022-09-22T01:17:39.512Z,81.51
2022-09-22T01:20:18.827Z,81.68
2022-09-22T01:23:00.815Z,81.95
2022-09-22T01:26:06.351Z,81.69
2022-09-22T01:29:17.886Z,81.65
2022-09-22T01:32:05.296Z,81.66
2022-09-22T01:34:50.609Z,81.66
2022-09-22T01:37:52.289Z,82.01
2022-09-22T01:40:28.135Z,82.24
2022-09-22T01:43:22.041Z,82.59
2022-09-22T01:45:49.828Z,82.47
2022-09-22T01:48:31.162Z,82.67
2022-09-22T01:51:08.822Z,82.09
2022-09-22T01:53:43.273Z,82.22
2022-09-22T01:56:13.265Z,82.24
2022-09-22T01:58:54.764Z,81.85
2022-09-22T02:01:27.574Z,82.00
2022-09-22T02:03:57.425Z,82.46
2022-09-22T02:06:31.371Z,82.48
2022-09-22T02:09:11.954Z,82.56
2022-09-22T02:11:40.275Z,82.27
2022-09-22T02:14:07.352Z,82.59
2022-09-22T02:16:35.222Z,82.39
2022-09-22T02:19:17.697Z,82.59
2022-09-22T02:21:47.210Z,81.95
2022-09-22T02:24:44.468Z,82.08
2022-09-22T02:27:26.715Z,81.95
2022-09-22T02:29:59.211Z,81.99
2022-09-22T02:32:27.518Z,81.80
2022-09-22T02:34:56.003Z,82.03
2022-09-22T02:37:49.930Z,81.71
2022-09-22T02:41:07.823Z,81.69
2022-09-22T02:44:00.170Z,81.55
2022-09-22T02:46:37.815Z,81.75
2022-09-22T02:49:09.882Z,81.86
2022-09-22T02:51:36.925Z,81.53
2022-09-22T02:54:03.919Z,81.59
2022-09-22T02:56:30.863Z,81.10
2022-09-22T02:58:58.601Z,81.24
2022-09-22T03:01:26.380Z,82.03
2022-09-22T03:03:53.886Z,81.80
2022-09-22T03:06:20.803Z,81.12
2022-09-22T03:08:47.875Z,81.06
2022-09-22T03:11:14.853Z,81.26
2022-09-22T03:13:41.805Z,81.14
2022-09-22T03:16:09.577Z,81.50
2022-09-22T03:18:36.566Z,81.31
2022-09-22T03:21:03.714Z,81.33
2022-09-22T03:23:30.661Z,81.31
2022-09-22T03:25:57.726Z,81.26
2022-09-22T03:28:24.778Z,81.50
2022-09-22T03:30:51.747Z,81.36
2022-09-22T03:33:18.828Z,81.44
2022-09-22T03:35:45.726Z,80.93
2022-09-22T03:38:12.934Z,80.99
2022-09-22T03:40:39.929Z,80.89
2022-09-22T03:43:06.906Z,80.77
2022-09-22T03:45:33.867Z,80.79
2022-09-22T03:48:00.855Z,80.67
2022-09-22T03:50:28.663Z,80.62
2022-09-22T03:52:57.319Z,81.29
2022-09-22T03:55:25.684Z,81.12
2022-09-22T03:57:52.783Z,80.85
2022-09-22T04:00:19.871Z,80.76
2022-09-22T04:02:46.855Z,80.78
2022-09-22T04:05:13.799Z,80.83
2022-09-22T04:07:40.768Z,80.89
2022-09-22T04:10:08.646Z,81.10
2022-09-22T04:12:35.631Z,80.97
2022-09-22T04:15:02.474Z,80.81
2022-09-22T04:17:29.456Z,80.93
2022-09-22T04:19:56.569Z,80.68
2022-09-22T04:22:23.676Z,81.03
2022-09-22T04:24:50.653Z,80.85
2022-09-22T04:27:20.360Z,80.75
2022-09-22T04:29:48.307Z,81.13
2022-09-22T04:32:16.524Z,80.65
2022-09-22T04:34:43.514Z,80.62
2022-09-22T04:37:11.999Z,80.79
2022-09-22T04:39:38.932Z,81.13
2022-09-22T04:42:06.363Z,81.15
2022-09-22T04:44:35.228Z,80.93
2022-09-22T04:47:02.617Z,80.21
2022-09-22T04:49:29.538Z,80.79
2022-09-22T04:51:56.512Z,79.98
2022-09-22T04:54:23.510Z,80.71
2022-09-22T04:56:50.428Z,79.99
2022-09-22T04:59:17.299Z,80.62
2022-09-22T05:01:44.340Z,80.40
2022-09-22T05:04:11.338Z,80.34
2022-09-22T05:06:38.760Z,80.59
2022-09-22T05:09:05.811Z,80.16
2022-09-22T05:11:33.124Z,80.48
2022-09-22T05:14:00.330Z,80.11
2022-09-22T05:16:27.411Z,80.38
2022-09-22T05:18:54.425Z,80.30
2022-09-22T05:21:21.314Z,80.23
2022-09-22T05:23:48.241Z,79.96
2022-09-22T05:26:15.179Z,80.38
2022-09-22T05:28:42.054Z,80.40
2022-09-22T05:31:08.990Z,80.05
2022-09-22T05:33:35.947Z,80.09
2022-09-22T05:36:03.893Z,80.08
2022-09-22T05:38:31.319Z,80.41
2022-09-22T05:40:58.281Z,80.31
2022-09-22T05:43:25.158Z,80.31
2022-09-22T05:45:52.158Z,80.80
2022-09-22T05:48:20.054Z,80.55
2022-09-22T05:50:47.204Z,80.24
2022-09-22T05:53:15.066Z,80.20
2022-09-22T05:55:42.012Z,80.35
2022-09-22T05:58:12.806Z,80.64
2022-09-22T06:00:40.348Z,80.39
2022-09-22T06:03:07.809Z,79.62
2022-09-22T06:05:38.045Z,79.95
2022-09-22T06:08:07.589Z,79.65
2022-09-22T06:10:36.717Z,79.56
2022-09-22T06:13:09.186Z,79.71
2022-09-22T06:15:36.691Z,79.42
2022-09-22T06:18:11.833Z,78.98
2022-09-22T06:20:42.464Z,79.09
2022-09-22T06:23:09.452Z,78.58
2022-09-22T06:25:36.403Z,78.69
2022-09-22T06:28:09.164Z,78.59
2022-09-22T06:30:40.492Z,78.57
2022-09-22T06:33:09.184Z,78.97
2022-09-22T06:35:38.996Z,78.68
2022-09-22T06:38:07.738Z,78.95
2022-09-22T06:40:38.569Z,78.28
2022-09-22T06:43:12.364Z,77.53
2022-09-22T06:45:40.025Z,78.18
2022-09-22T06:48:10.055Z,78.33
2022-09-22T06:50:38.466Z,77.96
2022-09-22T06:53:11.693Z,77.85
2022-09-22T06:55:41.862Z,77.31
2022-09-22T06:58:09.508Z,77.63
2022-09-22T07:00:36.686Z,76.97
2022-09-22T07:03:13.926Z,77.29
2022-09-22T07:05:40.923Z,77.16
2022-09-22T07:08:09.198Z,76.64
2022-09-22T07:10:39.120Z,76.64
2022-09-22T07:13:06.472Z,76.22
2022-09-22T07:15:35.772Z,76.35
2022-09-22T07:18:03.717Z,75.97
2022-09-22T07:20:30.858Z,75.33
2022-09-22T07:23:01.054Z,75.27
2022-09-22T07:25:29.334Z,75.27
2022-09-22T07:27:59.506Z,75.45
2022-09-22T07:30:26.619Z,74.57
2022-09-22T07:32:53.632Z,74.63
2022-09-22T07:35:20.583Z,74.36
2022-09-22T07:37:47.548Z,73.75
2022-09-22T07:40:14.989Z,74.33
2022-09-22T07:42:41.928Z,73.13
2022-09-22T07:45:13.117Z,73.01
2022-09-22T07:47:59.122Z,73.44
2022-09-22T07:50:26.480Z,73.41
2022-09-22T07:52:54.458Z,72.62
2022-09-22T07:55:25.371Z,72.14
2022-09-22T07:58:00.702Z,71.30
2022-09-22T08:00:33.528Z,72.22
2022-09-22T08:03:01.632Z,71.38
2022-09-22T08:05:29.750Z,71.44
2022-09-22T08:08:02.538Z,70.73
2022-09-22T08:10:32.706Z,70.40
2022-09-22T08:13:00.515Z,70.65
2022-09-22T08:15:27.659Z,71.38
2022-09-22T08:17:58.629Z,71.43
2022-09-22T08:20:30.049Z,70.96
2022-09-22T08:23:03.454Z,70.56
2022-09-22T08:25:30.798Z,70.57
2022-09-22T08:27:57.979Z,70.21
2022-09-22T08:30:24.982Z,70.33
2022-09-22T08:32:52.306Z,70.89
2022-09-22T08:35:19.241Z,69.61
2022-09-22T08:37:49.578Z,69.76
2022-09-22T08:40:24.077Z,69.44
2022-09-22T08:42:55.797Z,69.27
2022-09-22T08:45:35.684Z,69.35
2022-09-22T08:48:40.379Z,68.82
2022-09-22T08:51:58.396Z,68.37
2022-09-22T08:54:34.864Z,68.18
2022-09-22T08:57:21.579Z,67.17
2022-09-22T08:59:55.148Z,66.33
2022-09-22T09:02:32.826Z,67.43
2022-09-22T09:05:23.792Z,65.97
2022-09-22T09:08:14.604Z,66.56
2022-09-22T09:10:54.563Z,65.81
2022-09-22T09:13:21.447Z,65.61
2022-09-22T09:16:05.277Z,65.43
2022-09-22T09:18:34.299Z,66.02
2022-09-22T09:21:06.916Z,65.80
2022-09-22T09:26:33.183Z,65.85
2022-09-22T09:29:07.517Z,64.93
2022-09-22T09:31:54.860Z,63.88
2022-09-22T09:34:25.485Z,63.46
2022-09-22T09:36:58.861Z,62.20
2022-09-22T09:39:35.030Z,62.56
2022-09-22T09:42:07.190Z,62.32
2022-09-22T09:44:40.335Z,62.65
2022-09-22T09:47:22.569Z,62.16
2022-09-22T09:49:52.986Z,61.62
2022-09-22T09:52:20.562Z,61.62
2022-09-22T09:54:47.934Z,59.34
2022-09-22T09:57:16.133Z,59.89
2022-09-22T10:00:06.334Z,59.60
2022-09-22T10:02:59.193Z,59.07
2022-09-22T10:05:27.580Z,59.36
2022-09-22T10:07:58.682Z,57.65
2022-09-22T10:10:41.477Z,58.49
2022-09-22T10:13:08.367Z,58.00
2022-09-22T10:15:39.869Z,58.70
2022-09-22T10:18:25.140Z,59.24
2022-09-22T10:21:19.879Z,59.32
2022-09-22T10:23:53.996Z,58.87
2022-09-22T10:26:30.644Z,58.88
2022-09-22T10:29:06.790Z,59.42
2022-09-22T10:31:35.927Z,59.06
2022-09-22T10:34:02.925Z,58.28
2022-09-22T10:36:31.334Z,58.89
2022-09-22T10:38:59.844Z,56.83
2022-09-22T10:41:34.340Z,55.30
2022-09-22T10:44:37.458Z,55.04
2022-09-22T10:47:26.916Z,54.28
2022-09-22T10:50:31.860Z,53.74
2022-09-22T10:53:07.320Z,53.17
2022-09-22T10:55:56.214Z,53.95
2022-09-22T10:58:43.190Z,53.79
2022-09-22T11:01:42.219Z,55.92
2022-09-22T11:04:30.723Z,59.95
2022-09-22T11:07:26.786Z,60.36
2022-09-22T11:10:40.915Z,59.79
2022-09-22T11:13:49.139Z,59.62
2022-09-22T11:16:42.524Z,59.02
2022-09-22T11:19:26.025Z,57.81
2022-09-22T11:22:10.589Z,58.14
2022-09-22T11:24:56.303Z,58.40
2022-09-22T11:27:36.814Z,60.19
2022-09-22T11:30:23.332Z,58.34
2022-09-22T11:33:17.693Z,58.13
2022-09-22T11:35:56.373Z,55.71
2022-09-22T11:38:41.646Z,55.45
2022-09-22T11:41:26.173Z,54.61
2022-09-22T11:44:32.479Z,54.37
2022-09-22T11:47:20.878Z,55.21
2022-09-22T11:50:05.434Z,55.85
2022-09-22T11:52:44.046Z,55.64
2022-09-22T11:55:23.846Z,55.08
2022-09-22T11:57:57.221Z,56.96
2022-09-22T12:00:24.495Z,56.92
2022-09-22T12:03:02.156Z,54.22
2022-09-22T12:05:42.533Z,54.55
2022-09-22T12:08:21.528Z,53.24
2022-09-22T12:10:50.425Z,52.47
2022-09-22T12:13:21.724Z,51.24
2022-09-22T12:16:31.281Z,52.45
2022-09-22T12:19:25.534Z,51.85
2022-09-22T12:22:05.800Z,50.63
2022-09-22T12:24:33.508Z,51.19
2022-09-22T12:27:11.318Z,49.88
2022-09-22T12:29:39.239Z,50.78
2022-09-22T12:32:06.507Z,50.23
2022-09-22T12:34:39.511Z,50.42
2022-09-22T12:37:27.288Z,48.69
2022-09-22T12:39:54.626Z,49.76
2022-09-22T12:42:34.657Z,50.25
2022-09-22T12:45:18.174Z,51.09
2022-09-22T12:47:51.678Z,52.21
2022-09-22T12:50:24.553Z,52.65
2022-09-22T12:52:51.464Z,52.81
2022-09-22T12:55:30.431Z,53.44
2022-09-22T12:58:02.817Z,53.53
2022-09-22T13:00:41.129Z,53.27
2022-09-22T13:03:26.442Z,53.71
2022-09-22T13:06:05.303Z,53.37
2022-09-22T13:08:32.202Z,53.62
2022-09-22T13:11:00.563Z,54.08
2022-09-22T13:13:31.237Z,54.25
2022-09-22T13:16:00.984Z,53.80
2022-09-22T13:18:40.117Z,54.33
2022-09-22T13:21:13.284Z,55.03
2022-09-22T13:23:53.137Z,52.48
2022-09-22T13:26:34.807Z,53.22
2022-09-22T13:29:18.259Z,53.25
2022-09-22T13:31:51.395Z,54.27
2022-09-22T13:34:32.354Z,54.27
2022-09-22T13:37:08.228Z,54.10
2022-09-22T13:39:42.273Z,55.20
2022-09-22T13:42:24.434Z,55.14
2022-09-22T13:45:30.589Z,56.00
2022-09-22T13:48:14.006Z,56.33
2022-09-22T13:51:05.926Z,55.24
2022-09-22T13:53:33.021Z,56.22
2022-09-22T13:56:00.240Z,56.05
2022-09-22T13:58:40.264Z,56.41
2022-09-22T14:01:19.960Z,56.37
2022-09-22T14:03:48.734Z,56.50
2022-09-22T14:06:18.713Z,56.12
2022-09-22T14:08:48.477Z,57.01
2022-09-22T14:11:24.793Z,57.44
2022-09-22T14:13:55.214Z,58.17
2022-09-22T14:16:42.672Z,57.32
2022-09-22T14:19:15.185Z,57.02
2022-09-22T14:21:56.390Z,57.27
2022-09-22T14:24:24.268Z,57.51
2022-09-22T14:27:04.701Z,57.86
2022-09-22T14:29:34.884Z,57.90
2022-09-22T14:32:22.685Z,58.08
2022-09-22T14:34:52.534Z,57.62
2022-09-22T14:37:26.904Z,58.19
2022-09-22T14:39:56.033Z,58.11
2022-09-22T14:42:29.707Z,58.65
2022-09-22T14:45:27.703Z,59.09
2022-09-22T14:48:18.555Z,59.40
2022-09-22T14:50:47.662Z,59.44
2022-09-22T14:53:23.296Z,60.03
2022-09-22T14:55:53.922Z,60.24
2022-09-22T14:58:28.049Z,60.24
2022-09-22T15:01:24.244Z,60.46
2022-09-22T15:04:03.053Z,60.37
2022-09-22T15:06:38.321Z,60.22
2022-09-22T15:09:06.627Z,60.59
2022-09-22T15:11:48.902Z,60.90
2022-09-22T15:14:34.466Z,61.64
2022-09-22T15:17:20.876Z,61.36
2022-09-22T15:19:59.586Z,60.70
2022-09-22T15:22:27.917Z,61.48
2022-09-22T15:24:54.854Z,61.23
2022-09-22T15:27:21.942Z,61.47
2022-09-22T15:29:50.016Z,61.27
2022-09-22T15:32:16.939Z,61.39
2022-09-22T15:34:45.543Z,61.70
2022-09-22T15:37:20.847Z,61.80
2022-09-22T15:39:47.789Z,61.66
2022-09-22T15:42:14.897Z,62.62
2022-09-22T15:44:41.897Z,62.45
2022-09-22T15:47:17.329Z,62.88
2022-09-22T15:49:45.372Z,62.80
2022-09-22T15:52:12.336Z,62.70
2022-09-22T15:54:39.249Z,62.83
2022-09-22T15:57:06.708Z,63.13
2022-09-22T15:59:34.042Z,63.40
2022-09-22T16:02:02.114Z,63.26
2022-09-22T16:04:34.451Z,63.73
2022-09-22T16:07:08.670Z,63.84
2022-09-22T16:09:35.900Z,63.86
2022-09-22T16:12:03.609Z,64.04
2022-09-22T16:14:30.588Z,63.77
2022-09-22T16:16:57.555Z,64.20
2022-09-22T16:19:24.485Z,63.70
2022-09-22T16:21:54.705Z,64.38
2022-09-22T16:24:22.952Z,64.09
2022-09-22T16:26:52.013Z,64.14
2022-09-22T16:29:19.024Z,64.52
2022-09-22T16:31:46.230Z,64.42
2022-09-22T16:34:13.205Z,64.72
2022-09-22T16:36:42.068Z,64.50
2022-09-22T16:39:09.152Z,64.55
2022-09-22T16:41:37.111Z,64.68
2022-09-22T16:44:05.341Z,64.46
2022-09-22T16:46:38.199Z,64.39
2022-09-22T16:49:08.456Z,64.67
2022-09-22T16:51:40.417Z,64.50
2022-09-22T16:54:14.026Z,65.04
2022-09-22T16:56:46.536Z,64.88
2022-09-22T16:59:19.143Z,64.75
2022-09-22T17:01:46.738Z,64.56
2022-09-22T17:04:19.400Z,64.85
2022-09-22T17:06:47.335Z,64.18
2022-09-22T17:09:15.011Z,64.62
2022-09-22T17:11:45.611Z,64.40
2022-09-22T17:14:15.847Z,64.39
2022-09-22T17:16:52.304Z,64.97
2022-09-22T17:19:26.266Z,64.59
2022-09-22T17:21:55.738Z,66.40
2022-09-22T17:24:24.265Z,66.77
2022-09-22T17:26:53.683Z,68.11
2022-09-22T17:29:25.355Z,68.42
2022-09-22T17:32:00.210Z,68.38
2022-09-22T17:34:28.915Z,68.25
2022-09-22T17:36:56.938Z,68.23
2022-09-22T17:39:25.443Z,68.19
2022-09-22T17:41:52.623Z,67.69
2022-09-22T17:44:23.172Z,69.02
2022-09-22T17:47:10.673Z,69.58
2022-09-22T17:49:57.332Z,70.11
2022-09-22T17:52:33.546Z,69.91
2022-09-22T17:55:09.523Z,70.20
2022-09-22T17:57:42.115Z,70.41
2022-09-22T18:00:16.138Z,70.63
2022-09-22T18:02:43.933Z,70.70
2022-09-22T18:05:16.565Z,70.98
2022-09-22T18:07:44.064Z,71.27
2022-09-22T18:10:16.977Z,71.21
2022-09-22T18:12:44.558Z,69.99
2022-09-22T18:15:13.613Z,69.31
2022-09-22T18:17:42.307Z,69.64
2022-09-22T18:20:21.101Z,69.55
2022-09-22T18:22:49.512Z,70.15
2022-09-22T18:25:19.735Z,69.88
2022-09-22T18:27:48.777Z,70.34
2022-09-22T18:30:17.970Z,70.22
2022-09-22T18:32:44.988Z,69.78
2022-09-22T18:35:13.147Z,69.63
2022-09-22T18:37:40.614Z,69.80
2022-09-22T18:40:09.275Z,70.35
2022-09-22T18:42:37.022Z,70.90
2022-09-22T18:45:04.677Z,71.04
2022-09-22T18:47:31.636Z,71.12
2022-09-22T18:49:59.060Z,71.25
2022-09-22T18:52:26.048Z,71.88
2022-09-22T18:54:54.526Z,71.25
2022-09-22T18:57:23.771Z,71.90
2022-09-22T18:59:51.427Z,72.20
2022-09-22T19:02:23.264Z,72.44
2022-09-22T19:04:51.963Z,72.55
2022-09-22T19:07:42.006Z,71.84
2022-09-22T19:10:11.963Z,71.98
2022-09-22T19:12:41.891Z,71.72
2022-09-22T19:15:13.881Z,71.84
2022-09-22T19:17:45.738Z,72.16
2022-09-22T19:20:17.562Z,71.69
2022-09-22T19:22:45.175Z,72.35
2022-09-22T19:25:12.743Z,72.34
2022-09-22T19:27:43.035Z,72.93
2022-09-22T19:30:11.661Z,72.21
2022-09-22T19:32:39.663Z,72.45
2022-09-22T19:35:07.777Z,72.42
2022-09-22T19:37:34.948Z,72.65
2022-09-22T19:40:02.135Z,72.83
2022-09-22T19:42:29.387Z,72.78
2022-09-22T19:44:56.340Z,72.72
2022-09-22T19:47:24.105Z,72.45
2022-09-22T19:49:51.255Z,72.78
2022-09-22T19:52:18.339Z,73.32
2022-09-22T19:54:45.338Z,72.81
2022-09-22T19:57:13.484Z,73.19
2022-09-22T19:59:40.868Z,73.17
2022-09-22T20:02:15.331Z,73.09
2022-09-22T20:04:42.684Z,72.99
2022-09-22T20:07:11.206Z,73.01
2022-09-22T20:09:38.493Z,72.71
2022-09-22T20:12:06.075Z,73.28
2022-09-22T20:14:33.696Z,72.97
2022-09-22T20:17:03.639Z,73.23
2022-09-22T20:19:32.807Z,73.62
2022-09-22T20:22:28.685Z,73.77
2022-09-22T20:25:00.768Z,73.69
2022-09-22T20:27:33.494Z,73.31
2022-09-22T20:30:01.107Z,73.84
2022-09-22T20:32:32.400Z,74.04
2022-09-22T20:34:59.556Z,73.81
2022-09-22T20:37:26.595Z,73.93
2022-09-22T20:39:53.722Z,74.06
2022-09-22T20:42:20.894Z,73.96
2022-09-22T20:44:48.848Z,73.89
2022-09-22T20:47:18.335Z,74.09
2022-09-22T20:49:49.420Z,73.85
2022-09-22T20:52:20.478Z,73.98
2022-09-22T20:54:48.689Z,73.74
2022-09-22T20:57:15.904Z,74.05
2022-09-22T20:59:46.286Z,74.04
2022-09-22T21:02:14.900Z,74.03
2022-09-22T21:04:42.090Z,73.71
2022-09-22T21:07:09.761Z,74.45
2022-09-22T21:09:55.653Z,74.07
2022-09-22T21:12:28.589Z,74.04
2022-09-22T21:14:57.919Z,74.10
2022-09-22T21:17:25.594Z,73.55
2022-09-22T21:19:52.570Z,73.82
2022-09-22T21:22:19.757Z,74.09
2022-09-22T21:24:49.071Z,74.03
2022-09-22T21:27:16.177Z,73.60
2022-09-22T21:29:43.156Z,73.84
2022-09-22T21:32:10.308Z,74.16
2022-09-22T21:34:37.269Z,74.38
2022-09-22T21:37:05.345Z,74.09
2022-09-22T21:39:32.263Z,74.03
2022-09-22T21:41:59.270Z,74.04
2022-09-22T21:44:26.407Z,74.30
2022-09-22T21:46:54.582Z,74.13
2022-09-22T21:49:21.586Z,74.36
2022-09-22T21:51:48.760Z,74.39
2022-09-22T21:54:18.433Z,74.65
2022-09-22T21:56:46.182Z,74.09
2022-09-22T21:59:13.733Z,73.79
2022-09-22T22:01:46.869Z,74.33
2022-09-22T22:04:15.448Z,74.05
2022-09-22T22:06:44.641Z,74.37
2022-09-22T22:09:18.054Z,74.06
2022-09-22T22:11:53.642Z,74.72
2022-09-22T22:14:21.585Z,74.47
2022-09-22T22:16:50.978Z,74.84
2022-09-22T22:19:20.747Z,74.84
2022-09-22T22:21:50.556Z,74.91
2022-09-22T22:24:31.984Z,74.89
2022-09-22T22:27:01.952Z,74.94
2022-09-22T22:29:32.151Z,75.26
2022-09-22T22:31:59.537Z,75.34
2022-09-22T22:34:26.601Z,74.98
2022-09-22T22:36:55.379Z,75.47
2022-09-22T22:39:22.646Z,75.43
2022-09-22T22:41:49.630Z,75.52
2022-09-22T22:44:18.165Z,75.09
2022-09-22T22:46:45.787Z,74.83
2022-09-22T22:49:13.048Z,75.15
2022-09-22T22:51:40.603Z,75.05
2022-09-22T22:54:07.748Z,75.13
2022-09-22T22:56:34.773Z,75.04
2022-09-22T22:59:01.906Z,74.83
2022-09-22T23:01:31.250Z,75.47
2022-09-22T23:04:00.755Z,75.39
2022-09-22T23:06:36.408Z,75.14
2022-09-22T23:09:05.537Z,75.85
2022-09-22T23:11:37.693Z,75.87
2022-09-22T23:14:07.049Z,75.23
2022-09-22T23:16:39.193Z,76.01
2022-09-22T23:19:08.847Z,75.79
2022-09-22T23:21:36.832Z,75.88
2022-09-22T23:24:05.511Z,75.88
2022-09-22T23:26:32.706Z,76.16
2022-09-22T23:29:00.324Z,75.95
2022-09-22T23:31:28.245Z,76.19
2022-09-22T23:33:55.322Z,76.09
2022-09-22T23:36:27.139Z,76.21
2022-09-22T23:39:04.506Z,76.13
2022-09-22T23:41:34.174Z,76.79
2022-09-22T23:44:01.404Z,76.37
2022-09-22T23:46:28.361Z,76.85
2022-09-22T23:48:55.908Z,76.76
2022-09-22T23:51:23.403Z,76.87
2022-09-22T23:53:50.499Z,76.79
2022-09-22T23:56:17.586Z,77.27
2022-09-22T23:58:46.884Z,77.62
